sensor_id;sensor_type;location;lat;lon;timestamp;temperature;humidity
5258;DHT22;2651;51.594;9.928;2022-12-26T00:00:20;11.60;99.90
5258;DHT22;2651;51.594;9.928;2022-12-26T00:01:24;11.50;99.90
5258;DHT22;2651;51.594;9.928;2022-12-26T00:02:26;11.60;99.90
5258;DHT22;2651;51.594;9.928;2022-12-26T00:03:28;11.60;99.90
5258;DHT22;2651;51.594;9.928;2022-12-26T00:04:31;11.60;99.90
5258;DHT22;2651;51.594;9.928;2022-12-26T00:05:52;11.50;99.90
5258;DHT22;2651;51.594;9.928;2022-12-26T00:06:54;11.50;99.90
5258;DHT22;2651;51.594;9.928;2022-12-26T00:07:56;11.60;99.90
5258;DHT22;2651;51.594;9.928;2022-12-26T00:08:58;11.60;99.90
5258;DHT22;2651;51.594;9.928;2022-12-26T00:10:00;11.60;99.90
5258;DHT22;2651;51.594;9.928;2022-12-26T00:11:02;11.60;99.90
5258;DHT22;2651;51.594;9.928;2022-12-26T00:12:04;11.60;99.90
5258;DHT22;2651;51.594;9.928;2022-12-26T00:13:06;11.60;99.90
5258;DHT22;2651;51.594;9.928;2022-12-26T00:14:27;11.60;99.90
5258;DHT22;2651;51.594;9.928;2022-12-26T00:15:29;11.50;99.90
5258;DHT22;2651;51.594;9.928;2022-12-26T00:16:31;11.50;99.90
5258;DHT22;2651;51.594;9.928;2022-12-26T00:17:32;11.50;99.90
5258;DHT22;2651;51.594;9.928;2022-12-26T00:18:34;11.50;99.90
5258;DHT22;2651;51.594;9.928;2022-12-26T00:19:35;11.50;99.90
5258;DHT22;2651;51.594;9.928;2022-12-26T00:20:37;11.40;99.90
5258;DHT22;2651;51.594;9.928;2022-12-26T00:21:39;11.40;99.90
5258;DHT22;2651;51.594;9.928;2022-12-26T00:22:41;11.40;99.90
5258;DHT22;2651;51.594;9.928;2022-12-26T00:23:43;11.50;99.90
5258;DHT22;2651;51.594;9.928;2022-12-26T00:24:46;11.50;99.90
5258;DHT22;2651;51.594;9.928;2022-12-26T00:25:47;11.50;99.90
5258;DHT22;2651;51.594;9.928;2022-12-26T00:26:49;11.50;99.90
5258;DHT22;2651;51.594;9.928;2022-12-26T00:27:51;11.50;99.90
5258;DHT22;2651;51.594;9.928;2022-12-26T00:28:56;11.50;99.90
5258;DHT22;2651;51.594;9.928;2022-12-26T00:29:58;11.50;99.90
5258;DHT22;2651;51.594;9.928;2022-12-26T00:31:18;11.40;99.90
5258;DHT22;2651;51.594;9.928;2022-12-26T00:32:20;11.50;99.90
5258;DHT22;2651;51.594;9.928;2022-12-26T00:33:21;11.50;99.90
5258;DHT22;2651;51.594;9.928;2022-12-26T00:34:23;11.50;99.90
5258;DHT22;2651;51.594;9.928;2022-12-26T00:35:25;11.50;99.90
5258;DHT22;2651;51.594;9.928;2022-12-26T00:36:29;11.50;99.90
5258;DHT22;2651;51.594;9.928;2022-12-26T00:37:30;11.50;99.90
5258;DHT22;2651;51.594;9.928;2022-12-26T00:38:36;11.50;99.90
5258;DHT22;2651;51.594;9.928;2022-12-26T00:39:38;11.50;99.90
5258;DHT22;2651;51.594;9.928;2022-12-26T00:40:39;11.50;99.90
5258;DHT22;2651;51.594;9.928;2022-12-26T00:41:43;11.50;99.90
5258;DHT22;2651;51.594;9.928;2022-12-26T00:42:45;11.50;99.90
5258;DHT22;2651;51.594;9.928;2022-12-26T00:43:47;11.50;99.90
5258;DHT22;2651;51.594;9.928;2022-12-26T00:44:49;11.40;99.90
5258;DHT22;2651;51.594;9.928;2022-12-26T00:45:51;11.40;99.90
5258;DHT22;2651;51.594;9.928;2022-12-26T00:46:53;11.40;99.90
5258;DHT22;2651;51.594;9.928;2022-12-26T00:47:54;11.40;99.90
5258;DHT22;2651;51.594;9.928;2022-12-26T00:48:56;11.40;99.90
5258;DHT22;2651;51.594;9.928;2022-12-26T00:49:58;11.40;99.90
5258;DHT22;2651;51.594;9.928;2022-12-26T00:51:15;11.40;99.90
5258;DHT22;2651;51.594;9.928;2022-12-26T00:52:17;11.40;99.90
5258;DHT22;2651;51.594;9.928;2022-12-26T00:53:19;11.40;99.90
5258;DHT22;2651;51.594;9.928;2022-12-26T00:54:21;11.50;99.90
5258;DHT22;2651;51.594;9.928;2022-12-26T00:55:22;11.50;99.90
5258;DHT22;2651;51.594;9.928;2022-12-26T00:56:24;11.50;99.90
5258;DHT22;2651;51.594;9.928;2022-12-26T00:57:26;11.50;99.90
5258;DHT22;2651;51.594;9.928;2022-12-26T00:58:27;11.50;99.90
5258;DHT22;2651;51.594;9.928;2022-12-26T00:59:29;11.50;99.90
5258;DHT22;2651;51.594;9.928;2022-12-26T01:00:31;11.50;99.90
5258;DHT22;2651;51.594;9.928;2022-12-26T01:01:33;11.50;99.90
5258;DHT22;2651;51.594;9.928;2022-12-26T01:02:35;11.50;99.90
5258;DHT22;2651;51.594;9.928;2022-12-26T01:03:41;11.60;99.90
5258;DHT22;2651;51.594;9.928;2022-12-26T01:04:42;11.60;99.90
5258;DHT22;2651;51.594;9.928;2022-12-26T01:05:46;11.60;99.90
5258;DHT22;2651;51.594;9.928;2022-12-26T01:06:48;11.60;99.90
5258;DHT22;2651;51.594;9.928;2022-12-26T01:07:50;11.60;99.90
5258;DHT22;2651;51.594;9.928;2022-12-26T01:09:11;11.70;99.90
5258;DHT22;2651;51.594;9.928;2022-12-26T01:10:15;11.70;99.90
5258;DHT22;2651;51.594;9.928;2022-12-26T01:11:17;11.70;98.70
5258;DHT22;2651;51.594;9.928;2022-12-26T01:12:38;11.70;99.90
5258;DHT22;2651;51.594;9.928;2022-12-26T01:13:41;11.70;95.50
5258;DHT22;2651;51.594;9.928;2022-12-26T01:14:43;11.80;99.90
5258;DHT22;2651;51.594;9.928;2022-12-26T01:15:52;11.70;99.90
5258;DHT22;2651;51.594;9.928;2022-12-26T01:16:54;11.70;99.90
5258;DHT22;2651;51.594;9.928;2022-12-26T01:17:57;11.70;99.90
5258;DHT22;2651;51.594;9.928;2022-12-26T01:18:59;11.70;99.90
5258;DHT22;2651;51.594;9.928;2022-12-26T01:20:01;11.70;99.90
5258;DHT22;2651;51.594;9.928;2022-12-26T01:21:06;11.80;99.10
5258;DHT22;2651;51.594;9.928;2022-12-26T01:22:08;11.80;99.90
5258;DHT22;2651;51.594;9.928;2022-12-26T01:23:09;11.70;99.90
5258;DHT22;2651;51.594;9.928;2022-12-26T01:24:11;11.80;99.90
5258;DHT22;2651;51.594;9.928;2022-12-26T01:25:14;11.80;90.10
5258;DHT22;2651;51.594;9.928;2022-12-26T01:26:16;11.80;99.90
5258;DHT22;2651;51.594;9.928;2022-12-26T01:27:21;11.80;99.90
5258;DHT22;2651;51.594;9.928;2022-12-26T01:28:23;11.80;99.90
5258;DHT22;2651;51.594;9.928;2022-12-26T01:29:25;11.70;99.90
5258;DHT22;2651;51.594;9.928;2022-12-26T01:30:27;11.70;99.90
5258;DHT22;2651;51.594;9.928;2022-12-26T01:31:28;11.70;99.90
5258;DHT22;2651;51.594;9.928;2022-12-26T01:32:30;11.60;99.90
5258;DHT22;2651;51.594;9.928;2022-12-26T01:33:32;11.60;99.90
5258;DHT22;2651;51.594;9.928;2022-12-26T01:34:33;11.50;99.90
5258;DHT22;2651;51.594;9.928;2022-12-26T01:35:35;11.50;99.90
5258;DHT22;2651;51.594;9.928;2022-12-26T01:36:37;11.40;99.90
5258;DHT22;2651;51.594;9.928;2022-12-26T01:37:38;11.40;99.90
5258;DHT22;2651;51.594;9.928;2022-12-26T01:38:40;11.40;99.90
5258;DHT22;2651;51.594;9.928;2022-12-26T01:39:42;11.40;99.90
5258;DHT22;2651;51.594;9.928;2022-12-26T01:40:43;11.30;99.90
5258;DHT22;2651;51.594;9.928;2022-12-26T01:41:45;11.30;99.90
5258;DHT22;2651;51.594;9.928;2022-12-26T01:42:47;11.30;99.90
5258;DHT22;2651;51.594;9.928;2022-12-26T01:43:57;11.20;99.90
5258;DHT22;2651;51.594;9.928;2022-12-26T01:45:28;11.20;99.90
5258;DHT22;2651;51.594;9.928;2022-12-26T01:47:51;11.10;99.90
5258;DHT22;2651;51.594;9.928;2022-12-26T01:48:56;11.10;99.90
5258;DHT22;2651;51.594;9.928;2022-12-26T01:49:59;11.20;99.90
5258;DHT22;2651;51.594;9.928;2022-12-26T01:51:02;11.10;99.90
5258;DHT22;2651;51.594;9.928;2022-12-26T01:52:11;11.10;99.90
5258;DHT22;2651;51.594;9.928;2022-12-26T01:53:27;11.10;99.90
5258;DHT22;2651;51.594;9.928;2022-12-26T01:54:32;11.10;99.90
5258;DHT22;2651;51.594;9.928;2022-12-26T01:55:46;11.10;99.90
5258;DHT22;2651;51.594;9.928;2022-12-26T01:56:48;11.10;99.90
5258;DHT22;2651;51.594;9.928;2022-12-26T01:57:57;11.10;99.90
5258;DHT22;2651;51.594;9.928;2022-12-26T01:59:17;11.10;99.90
5258;DHT22;2651;51.594;9.928;2022-12-26T02:00:19;11.10;99.90
5258;DHT22;2651;51.594;9.928;2022-12-26T02:01:21;11.00;99.90
5258;DHT22;2651;51.594;9.928;2022-12-26T02:02:27;11.00;99.90
5258;DHT22;2651;51.594;9.928;2022-12-26T02:03:30;11.00;99.90
5258;DHT22;2651;51.594;9.928;2022-12-26T02:04:51;11.00;99.90
5258;DHT22;2651;51.594;9.928;2022-12-26T02:06:13;11.00;99.90
5258;DHT22;2651;51.594;9.928;2022-12-26T02:07:15;10.90;99.90
5258;DHT22;2651;51.594;9.928;2022-12-26T02:08:23;11.00;99.90
5258;DHT22;2651;51.594;9.928;2022-12-26T02:09:26;10.90;99.90
5258;DHT22;2651;51.594;9.928;2022-12-26T02:10:32;10.90;99.90
5258;DHT22;2651;51.594;9.928;2022-12-26T02:11:37;11.00;99.90
5258;DHT22;2651;51.594;9.928;2022-12-26T02:12:40;11.00;99.90
5258;DHT22;2651;51.594;9.928;2022-12-26T02:13:42;10.90;99.90
5258;DHT22;2651;51.594;9.928;2022-12-26T02:14:43;10.90;99.90
5258;DHT22;2651;51.594;9.928;2022-12-26T02:15:46;10.90;99.90
5258;DHT22;2651;51.594;9.928;2022-12-26T02:16:48;10.90;99.90
5258;DHT22;2651;51.594;9.928;2022-12-26T02:17:50;10.90;99.90
5258;DHT22;2651;51.594;9.928;2022-12-26T02:18:51;10.80;99.90
5258;DHT22;2651;51.594;9.928;2022-12-26T02:20:17;10.90;99.90
5258;DHT22;2651;51.594;9.928;2022-12-26T02:24:18;10.90;99.90
5258;DHT22;2651;51.594;9.928;2022-12-26T02:27:04;10.90;99.90
5258;DHT22;2651;51.594;9.928;2022-12-26T02:30:04;10.90;99.90
5258;DHT22;2651;51.594;9.928;2022-12-26T02:31:12;10.90;99.90
5258;DHT22;2651;51.594;9.928;2022-12-26T02:32:45;10.90;99.90
5258;DHT22;2651;51.594;9.928;2022-12-26T02:34:11;11.00;99.90
5258;DHT22;2651;51.594;9.928;2022-12-26T02:35:22;10.90;99.90
5258;DHT22;2651;51.594;9.928;2022-12-26T02:42:26;11.00;99.90
5258;DHT22;2651;51.594;9.928;2022-12-26T02:43:58;11.10;99.90
5258;DHT22;2651;51.594;9.928;2022-12-26T02:46:59;11.10;99.90
5258;DHT22;2651;51.594;9.928;2022-12-26T02:48:19;11.10;99.90
5258;DHT22;2651;51.594;9.928;2022-12-26T02:49:45;11.10;99.90
5258;DHT22;2651;51.594;9.928;2022-12-26T02:51:24;11.10;99.90
5258;DHT22;2651;51.594;9.928;2022-12-26T02:53:12;11.10;99.90
5258;DHT22;2651;51.594;9.928;2022-12-26T02:54:42;11.10;99.90
5258;DHT22;2651;51.594;9.928;2022-12-26T02:56:25;11.00;99.90
5258;DHT22;2651;51.594;9.928;2022-12-26T02:57:57;11.00;99.90
5258;DHT22;2651;51.594;9.928;2022-12-26T02:59:47;11.00;99.90
5258;DHT22;2651;51.594;9.928;2022-12-26T03:01:16;11.00;99.90
5258;DHT22;2651;51.594;9.928;2022-12-26T03:02:49;10.90;99.90
5258;DHT22;2651;51.594;9.928;2022-12-26T03:04:13;10.90;99.90
5258;DHT22;2651;51.594;9.928;2022-12-26T03:07:34;10.80;99.90
5258;DHT22;2651;51.594;9.928;2022-12-26T03:09:23;10.80;99.90
5258;DHT22;2651;51.594;9.928;2022-12-26T03:10:45;10.70;99.90
5258;DHT22;2651;51.594;9.928;2022-12-26T03:12:20;10.70;99.90
5258;DHT22;2651;51.594;9.928;2022-12-26T03:13:42;10.70;99.90
5258;DHT22;2651;51.594;9.928;2022-12-26T03:14:48;10.70;99.90
5258;DHT22;2651;51.594;9.928;2022-12-26T03:15:54;10.60;99.90
5258;DHT22;2651;51.594;9.928;2022-12-26T03:17:29;10.60;99.90
5258;DHT22;2651;51.594;9.928;2022-12-26T03:18:33;10.60;99.90
5258;DHT22;2651;51.594;9.928;2022-12-26T03:20:02;10.60;99.90
5258;DHT22;2651;51.594;9.928;2022-12-26T03:21:05;10.60;99.90
5258;DHT22;2651;51.594;9.928;2022-12-26T03:22:08;10.60;99.90
5258;DHT22;2651;51.594;9.928;2022-12-26T03:23:31;10.60;99.90
5258;DHT22;2651;51.594;9.928;2022-12-26T03:24:33;10.60;99.90
5258;DHT22;2651;51.594;9.928;2022-12-26T03:25:57;10.50;99.90
5258;DHT22;2651;51.594;9.928;2022-12-26T03:27:18;10.60;99.90
5258;DHT22;2651;51.594;9.928;2022-12-26T03:28:21;10.60;99.90
5258;DHT22;2651;51.594;9.928;2022-12-26T03:29:23;10.60;99.90
5258;DHT22;2651;51.594;9.928;2022-12-26T03:30:44;10.50;99.90
5258;DHT22;2651;51.594;9.928;2022-12-26T03:31:51;10.60;99.90
5258;DHT22;2651;51.594;9.928;2022-12-26T03:32:57;10.50;99.90
5258;DHT22;2651;51.594;9.928;2022-12-26T03:34:05;10.60;99.90
5258;DHT22;2651;51.594;9.928;2022-12-26T03:35:19;10.50;99.90
5258;DHT22;2651;51.594;9.928;2022-12-26T03:37:58;10.50;99.90
5258;DHT22;2651;51.594;9.928;2022-12-26T03:39:18;10.50;99.90
5258;DHT22;2651;51.594;9.928;2022-12-26T03:41:43;10.50;99.90
5258;DHT22;2651;51.594;9.928;2022-12-26T03:44:41;10.60;99.90
5258;DHT22;2651;51.594;9.928;2022-12-26T03:46:16;10.70;99.90
5258;DHT22;2651;51.594;9.928;2022-12-26T03:47:52;10.70;99.90
5258;DHT22;2651;51.594;9.928;2022-12-26T03:49:21;10.70;99.90
5258;DHT22;2651;51.594;9.928;2022-12-26T03:50:49;10.70;99.90
5258;DHT22;2651;51.594;9.928;2022-12-26T03:53:49;10.80;99.90
5258;DHT22;2651;51.594;9.928;2022-12-26T03:56:54;10.80;99.90
5258;DHT22;2651;51.594;9.928;2022-12-26T03:58:22;10.80;99.90
5258;DHT22;2651;51.594;9.928;2022-12-26T03:59:51;10.80;99.90
5258;DHT22;2651;51.594;9.928;2022-12-26T04:01:19;10.80;99.90
5258;DHT22;2651;51.594;9.928;2022-12-26T04:02:43;10.80;99.90
5258;DHT22;2651;51.594;9.928;2022-12-26T04:04:12;10.80;99.90
5258;DHT22;2651;51.594;9.928;2022-12-26T04:05:37;10.80;99.90
5258;DHT22;2651;51.594;9.928;2022-12-26T04:07:11;10.90;99.90
5258;DHT22;2651;51.594;9.928;2022-12-26T04:09:00;10.90;99.90
5258;DHT22;2651;51.594;9.928;2022-12-26T04:10:25;10.90;99.90
5258;DHT22;2651;51.594;9.928;2022-12-26T04:11:46;11.00;99.90
5258;DHT22;2651;51.594;9.928;2022-12-26T04:13:15;11.00;99.90
5258;DHT22;2651;51.594;9.928;2022-12-26T04:14:49;11.00;99.90
5258;DHT22;2651;51.594;9.928;2022-12-26T04:16:29;11.10;99.90
5258;DHT22;2651;51.594;9.928;2022-12-26T04:18:01;11.10;99.90
5258;DHT22;2651;51.594;9.928;2022-12-26T04:19:48;11.10;99.90
5258;DHT22;2651;51.594;9.928;2022-12-26T04:21:10;11.10;99.90
5258;DHT22;2651;51.594;9.928;2022-12-26T04:22:52;11.20;99.90
5258;DHT22;2651;51.594;9.928;2022-12-26T04:24:18;11.20;99.90
5258;DHT22;2651;51.594;9.928;2022-12-26T04:26:02;11.20;99.90
5258;DHT22;2651;51.594;9.928;2022-12-26T04:27:25;11.20;99.90
5258;DHT22;2651;51.594;9.928;2022-12-26T04:28:48;11.30;99.90
5258;DHT22;2651;51.594;9.928;2022-12-26T04:30:08;11.30;99.90
5258;DHT22;2651;51.594;9.928;2022-12-26T04:31:42;11.30;99.90
5258;DHT22;2651;51.594;9.928;2022-12-26T04:33:42;11.30;99.90
5258;DHT22;2651;51.594;9.928;2022-12-26T04:35:03;11.30;99.90
5258;DHT22;2651;51.594;9.928;2022-12-26T04:36:31;11.30;99.90
5258;DHT22;2651;51.594;9.928;2022-12-26T04:37:54;11.30;99.90
5258;DHT22;2651;51.594;9.928;2022-12-26T04:39:18;11.30;99.90
5258;DHT22;2651;51.594;9.928;2022-12-26T04:40:45;11.30;99.90
5258;DHT22;2651;51.594;9.928;2022-12-26T04:42:08;11.30;99.90
5258;DHT22;2651;51.594;9.928;2022-12-26T04:43:29;11.30;99.90
5258;DHT22;2651;51.594;9.928;2022-12-26T04:44:53;11.30;99.90
5258;DHT22;2651;51.594;9.928;2022-12-26T04:45:55;11.20;99.90
5258;DHT22;2651;51.594;9.928;2022-12-26T04:46:57;11.20;99.90
5258;DHT22;2651;51.594;9.928;2022-12-26T04:47:59;11.20;99.90
5258;DHT22;2651;51.594;9.928;2022-12-26T04:49:19;11.20;99.90
5258;DHT22;2651;51.594;9.928;2022-12-26T04:50:51;11.20;99.90
5258;DHT22;2651;51.594;9.928;2022-12-26T04:51:55;11.10;99.90
5258;DHT22;2651;51.594;9.928;2022-12-26T04:52:57;11.10;99.90
5258;DHT22;2651;51.594;9.928;2022-12-26T04:53:59;11.10;99.90
5258;DHT22;2651;51.594;9.928;2022-12-26T04:55:01;11.10;99.90
5258;DHT22;2651;51.594;9.928;2022-12-26T04:56:03;11.10;99.90
5258;DHT22;2651;51.594;9.928;2022-12-26T04:57:05;11.20;99.90
5258;DHT22;2651;51.594;9.928;2022-12-26T04:58:07;11.20;99.90
5258;DHT22;2651;51.594;9.928;2022-12-26T04:59:08;11.10;99.90
5258;DHT22;2651;51.594;9.928;2022-12-26T05:00:10;11.20;99.90
5258;DHT22;2651;51.594;9.928;2022-12-26T05:01:12;11.20;99.90
5258;DHT22;2651;51.594;9.928;2022-12-26T05:02:34;11.10;99.90
5258;DHT22;2651;51.594;9.928;2022-12-26T05:03:55;11.10;99.90
5258;DHT22;2651;51.594;9.928;2022-12-26T05:05:15;11.10;99.90
5258;DHT22;2651;51.594;9.928;2022-12-26T05:06:36;11.10;99.90
5258;DHT22;2651;51.594;9.928;2022-12-26T05:07:56;11.10;99.90
5258;DHT22;2651;51.594;9.928;2022-12-26T05:09:18;11.10;99.90
5258;DHT22;2651;51.594;9.928;2022-12-26T05:10:35;11.10;99.90
5258;DHT22;2651;51.594;9.928;2022-12-26T05:11:37;11.10;99.90
5258;DHT22;2651;51.594;9.928;2022-12-26T05:12:38;11.10;99.90
5258;DHT22;2651;51.594;9.928;2022-12-26T05:13:40;11.10;99.90
5258;DHT22;2651;51.594;9.928;2022-12-26T05:14:42;11.10;99.90
5258;DHT22;2651;51.594;9.928;2022-12-26T05:15:43;11.10;99.90
5258;DHT22;2651;51.594;9.928;2022-12-26T05:17:05;11.20;99.90
5258;DHT22;2651;51.594;9.928;2022-12-26T05:18:25;11.10;99.90
5258;DHT22;2651;51.594;9.928;2022-12-26T05:19:46;11.10;99.90
5258;DHT22;2651;51.594;9.928;2022-12-26T05:21:13;11.10;99.90
5258;DHT22;2651;51.594;9.928;2022-12-26T05:22:53;11.10;99.90
5258;DHT22;2651;51.594;9.928;2022-12-26T05:24:13;11.10;99.90
5258;DHT22;2651;51.594;9.928;2022-12-26T05:25:38;11.10;99.90
5258;DHT22;2651;51.594;9.928;2022-12-26T05:26:59;11.10;99.90
5258;DHT22;2651;51.594;9.928;2022-12-26T05:28:20;11.00;99.90
5258;DHT22;2651;51.594;9.928;2022-12-26T05:29:40;11.00;99.90
5258;DHT22;2651;51.594;9.928;2022-12-26T05:30:42;11.00;99.90
5258;DHT22;2651;51.594;9.928;2022-12-26T05:31:44;11.00;99.90
5258;DHT22;2651;51.594;9.928;2022-12-26T05:32:46;10.90;99.90
5258;DHT22;2651;51.594;9.928;2022-12-26T05:34:06;10.90;99.90
5258;DHT22;2651;51.594;9.928;2022-12-26T05:35:08;10.90;99.90
5258;DHT22;2651;51.594;9.928;2022-12-26T05:36:11;10.90;99.90
5258;DHT22;2651;51.594;9.928;2022-12-26T05:37:13;10.80;99.90
5258;DHT22;2651;51.594;9.928;2022-12-26T05:38:14;10.80;99.90
5258;DHT22;2651;51.594;9.928;2022-12-26T05:39:16;10.80;99.90
5258;DHT22;2651;51.594;9.928;2022-12-26T05:40:18;10.80;99.90
5258;DHT22;2651;51.594;9.928;2022-12-26T05:41:20;10.80;99.90
5258;DHT22;2651;51.594;9.928;2022-12-26T05:42:21;10.80;99.90
5258;DHT22;2651;51.594;9.928;2022-12-26T05:43:23;10.80;99.90
5258;DHT22;2651;51.594;9.928;2022-12-26T05:44:25;10.80;99.90
5258;DHT22;2651;51.594;9.928;2022-12-26T05:45:26;10.80;99.90
5258;DHT22;2651;51.594;9.928;2022-12-26T05:46:28;10.80;99.90
5258;DHT22;2651;51.594;9.928;2022-12-26T05:47:30;10.70;99.90
5258;DHT22;2651;51.594;9.928;2022-12-26T05:48:31;10.80;99.90
5258;DHT22;2651;51.594;9.928;2022-12-26T05:49:33;10.80;99.90
5258;DHT22;2651;51.594;9.928;2022-12-26T05:50:34;10.80;99.90
5258;DHT22;2651;51.594;9.928;2022-12-26T05:51:36;10.80;99.90
5258;DHT22;2651;51.594;9.928;2022-12-26T05:52:38;10.80;99.90
5258;DHT22;2651;51.594;9.928;2022-12-26T05:53:39;10.80;99.90
5258;DHT22;2651;51.594;9.928;2022-12-26T05:54:41;10.80;99.90
5258;DHT22;2651;51.594;9.928;2022-12-26T05:55:43;10.80;99.90
5258;DHT22;2651;51.594;9.928;2022-12-26T05:56:44;10.80;99.90
5258;DHT22;2651;51.594;9.928;2022-12-26T05:57:50;10.80;99.90
5258;DHT22;2651;51.594;9.928;2022-12-26T05:58:56;10.80;99.90
5258;DHT22;2651;51.594;9.928;2022-12-26T05:59:58;10.80;99.90
5258;DHT22;2651;51.594;9.928;2022-12-26T06:01:15;10.80;99.90
5258;DHT22;2651;51.594;9.928;2022-12-26T06:02:16;10.80;99.90
5258;DHT22;2651;51.594;9.928;2022-12-26T06:03:18;10.80;99.90
5258;DHT22;2651;51.594;9.928;2022-12-26T06:04:20;10.80;99.90
5258;DHT22;2651;51.594;9.928;2022-12-26T06:05:21;10.80;99.90
5258;DHT22;2651;51.594;9.928;2022-12-26T06:06:24;10.80;99.90
5258;DHT22;2651;51.594;9.928;2022-12-26T06:07:26;10.80;99.90
5258;DHT22;2651;51.594;9.928;2022-12-26T06:08:28;10.80;99.90
5258;DHT22;2651;51.594;9.928;2022-12-26T06:09:30;10.80;99.90
5258;DHT22;2651;51.594;9.928;2022-12-26T06:10:31;10.80;99.90
5258;DHT22;2651;51.594;9.928;2022-12-26T06:11:33;10.90;99.90
5258;DHT22;2651;51.594;9.928;2022-12-26T06:12:35;10.80;99.90
5258;DHT22;2651;51.594;9.928;2022-12-26T06:13:37;10.80;99.90
5258;DHT22;2651;51.594;9.928;2022-12-26T06:14:39;10.80;99.90
5258;DHT22;2651;51.594;9.928;2022-12-26T06:15:41;10.80;99.90
5258;DHT22;2651;51.594;9.928;2022-12-26T06:16:43;10.80;99.90
5258;DHT22;2651;51.594;9.928;2022-12-26T06:17:44;10.80;99.90
5258;DHT22;2651;51.594;9.928;2022-12-26T06:18:46;10.80;99.90
5258;DHT22;2651;51.594;9.928;2022-12-26T06:19:48;10.80;99.90
5258;DHT22;2651;51.594;9.928;2022-12-26T06:20:50;10.80;99.90
5258;DHT22;2651;51.594;9.928;2022-12-26T06:21:52;10.70;99.90
5258;DHT22;2651;51.594;9.928;2022-12-26T06:22:54;10.80;99.90
5258;DHT22;2651;51.594;9.928;2022-12-26T06:23:55;10.80;99.90
5258;DHT22;2651;51.594;9.928;2022-12-26T06:24:57;10.80;99.90
5258;DHT22;2651;51.594;9.928;2022-12-26T06:25:58;10.80;99.90
5258;DHT22;2651;51.594;9.928;2022-12-26T06:27:00;10.70;99.90
5258;DHT22;2651;51.594;9.928;2022-12-26T06:28:02;10.70;99.90
5258;DHT22;2651;51.594;9.928;2022-12-26T06:29:03;10.70;99.90
5258;DHT22;2651;51.594;9.928;2022-12-26T06:30:06;10.70;99.90
5258;DHT22;2651;51.594;9.928;2022-12-26T06:31:10;10.70;99.90
5258;DHT22;2651;51.594;9.928;2022-12-26T06:32:12;10.70;99.90
5258;DHT22;2651;51.594;9.928;2022-12-26T06:33:14;10.70;99.90
5258;DHT22;2651;51.594;9.928;2022-12-26T06:34:15;10.70;99.90
5258;DHT22;2651;51.594;9.928;2022-12-26T06:35:19;10.70;99.90
5258;DHT22;2651;51.594;9.928;2022-12-26T06:36:22;10.70;99.90
5258;DHT22;2651;51.594;9.928;2022-12-26T06:37:24;10.70;99.90
5258;DHT22;2651;51.594;9.928;2022-12-26T06:38:25;10.70;99.90
5258;DHT22;2651;51.594;9.928;2022-12-26T06:39:27;10.70;99.90
5258;DHT22;2651;51.594;9.928;2022-12-26T06:40:29;10.70;99.90
5258;DHT22;2651;51.594;9.928;2022-12-26T06:41:30;10.70;99.90
5258;DHT22;2651;51.594;9.928;2022-12-26T06:42:32;10.70;99.90
5258;DHT22;2651;51.594;9.928;2022-12-26T06:43:34;10.80;99.90
5258;DHT22;2651;51.594;9.928;2022-12-26T06:44:35;10.80;99.90
5258;DHT22;2651;51.594;9.928;2022-12-26T06:45:37;10.80;99.90
5258;DHT22;2651;51.594;9.928;2022-12-26T06:46:39;10.80;99.90
5258;DHT22;2651;51.594;9.928;2022-12-26T06:47:40;10.80;99.90
5258;DHT22;2651;51.594;9.928;2022-12-26T06:48:42;10.80;99.90
5258;DHT22;2651;51.594;9.928;2022-12-26T06:49:44;10.80;99.90
5258;DHT22;2651;51.594;9.928;2022-12-26T06:50:45;10.80;99.90
5258;DHT22;2651;51.594;9.928;2022-12-26T06:51:47;10.80;99.90
5258;DHT22;2651;51.594;9.928;2022-12-26T06:52:48;10.80;99.90
5258;DHT22;2651;51.594;9.928;2022-12-26T06:53:52;10.90;99.90
5258;DHT22;2651;51.594;9.928;2022-12-26T06:54:54;10.90;99.90
5258;DHT22;2651;51.594;9.928;2022-12-26T06:56:07;10.90;99.90
5258;DHT22;2651;51.594;9.928;2022-12-26T06:57:09;10.90;99.90
5258;DHT22;2651;51.594;9.928;2022-12-26T06:58:11;10.90;99.90
5258;DHT22;2651;51.594;9.928;2022-12-26T06:59:12;11.00;99.90
5258;DHT22;2651;51.594;9.928;2022-12-26T07:00:14;11.00;99.90
5258;DHT22;2651;51.594;9.928;2022-12-26T07:01:18;10.90;99.90
5258;DHT22;2651;51.594;9.928;2022-12-26T07:02:20;10.90;99.90
5258;DHT22;2651;51.594;9.928;2022-12-26T07:03:21;11.00;99.90
5258;DHT22;2651;51.594;9.928;2022-12-26T07:04:26;11.00;99.90
5258;DHT22;2651;51.594;9.928;2022-12-26T07:05:27;11.00;99.90
5258;DHT22;2651;51.594;9.928;2022-12-26T07:06:34;10.90;99.90
5258;DHT22;2651;51.594;9.928;2022-12-26T07:07:36;10.90;99.90
5258;DHT22;2651;51.594;9.928;2022-12-26T07:08:38;10.90;99.90
5258;DHT22;2651;51.594;9.928;2022-12-26T07:09:39;10.90;99.90
5258;DHT22;2651;51.594;9.928;2022-12-26T07:10:41;10.90;99.90
5258;DHT22;2651;51.594;9.928;2022-12-26T07:11:46;10.90;99.90
5258;DHT22;2651;51.594;9.928;2022-12-26T07:12:48;10.80;99.90
5258;DHT22;2651;51.594;9.928;2022-12-26T07:13:50;10.80;99.90
5258;DHT22;2651;51.594;9.928;2022-12-26T07:14:52;10.90;99.90
5258;DHT22;2651;51.594;9.928;2022-12-26T07:16:01;10.80;99.90
5258;DHT22;2651;51.594;9.928;2022-12-26T07:17:03;10.90;99.90
5258;DHT22;2651;51.594;9.928;2022-12-26T07:18:05;10.80;99.90
5258;DHT22;2651;51.594;9.928;2022-12-26T07:19:08;10.80;99.90
5258;DHT22;2651;51.594;9.928;2022-12-26T07:20:11;10.80;99.90
5258;DHT22;2651;51.594;9.928;2022-12-26T07:21:14;10.80;99.90
5258;DHT22;2651;51.594;9.928;2022-12-26T07:22:16;10.90;99.90
5258;DHT22;2651;51.594;9.928;2022-12-26T07:23:17;10.80;99.90
5258;DHT22;2651;51.594;9.928;2022-12-26T07:24:20;10.80;99.90
5258;DHT22;2651;51.594;9.928;2022-12-26T07:25:22;10.80;99.90
5258;DHT22;2651;51.594;9.928;2022-12-26T07:26:24;10.70;99.90
5258;DHT22;2651;51.594;9.928;2022-12-26T07:27:26;10.80;99.90
5258;DHT22;2651;51.594;9.928;2022-12-26T07:28:28;10.80;99.90
5258;DHT22;2651;51.594;9.928;2022-12-26T07:29:30;10.80;99.90
5258;DHT22;2651;51.594;9.928;2022-12-26T07:30:31;10.70;99.90
5258;DHT22;2651;51.594;9.928;2022-12-26T07:31:33;10.70;99.90
5258;DHT22;2651;51.594;9.928;2022-12-26T07:32:35;10.70;99.90
5258;DHT22;2651;51.594;9.928;2022-12-26T07:33:37;10.70;99.90
5258;DHT22;2651;51.594;9.928;2022-12-26T07:34:38;10.70;99.90
5258;DHT22;2651;51.594;9.928;2022-12-26T07:35:41;10.70;99.90
5258;DHT22;2651;51.594;9.928;2022-12-26T07:36:43;10.70;99.90
5258;DHT22;2651;51.594;9.928;2022-12-26T07:37:44;10.80;99.90
5258;DHT22;2651;51.594;9.928;2022-12-26T07:38:47;10.70;99.90
5258;DHT22;2651;51.594;9.928;2022-12-26T07:39:48;10.70;99.90
5258;DHT22;2651;51.594;9.928;2022-12-26T07:40:59;10.80;99.90
5258;DHT22;2651;51.594;9.928;2022-12-26T07:42:20;10.70;99.90
5258;DHT22;2651;51.594;9.928;2022-12-26T07:43:22;10.70;99.90
5258;DHT22;2651;51.594;9.928;2022-12-26T07:44:26;10.70;99.90
5258;DHT22;2651;51.594;9.928;2022-12-26T07:45:28;10.70;99.90
5258;DHT22;2651;51.594;9.928;2022-12-26T07:46:30;10.70;99.90
5258;DHT22;2651;51.594;9.928;2022-12-26T07:47:32;10.70;99.90
5258;DHT22;2651;51.594;9.928;2022-12-26T07:48:34;10.70;99.90
5258;DHT22;2651;51.594;9.928;2022-12-26T07:49:35;10.70;99.90
5258;DHT22;2651;51.594;9.928;2022-12-26T07:50:37;10.70;99.90
5258;DHT22;2651;51.594;9.928;2022-12-26T07:51:40;10.60;99.90
5258;DHT22;2651;51.594;9.928;2022-12-26T07:52:42;10.60;99.90
5258;DHT22;2651;51.594;9.928;2022-12-26T07:53:43;10.60;99.90
5258;DHT22;2651;51.594;9.928;2022-12-26T07:54:45;10.60;99.90